createdAt,value
2022-09-18T00:01:55.871Z,4.10
2022-09-18T00:04:27.661Z,3.85
2022-09-18T00:06:57.040Z,3.78
2022-09-18T00:09:26.949Z,3.73
2022-09-18T00:11:56.759Z,3.72
2022-09-18T00:14:26.251Z,3.75
2022-09-18T00:16:56.277Z,3.78
2022-09-18T00:19:27.002Z,3.75
2022-09-18T00:21:56.821Z,3.17
2022-09-18T00:24:26.098Z,3.60
2022-09-18T00:26:55.492Z,4.13
2022-09-18T00:29:25.175Z,3.30
2022-09-18T00:31:54.623Z,2.95
2022-09-18T00:34:23.978Z,3.08
2022-09-18T00:36:55.038Z,3.20
2022-09-18T00:39:24.423Z,2.70
2022-09-18T00:41:53.974Z,2.72
2022-09-18T00:44:33.666Z,2.75
2022-09-18T00:47:08.919Z,2.65
2022-09-18T00:49:41.400Z,2.85
2022-09-18T00:52:15.493Z,3.17
2022-09-18T00:54:47.076Z,2.85
2022-09-18T00:57:21.104Z,2.88
2022-09-18T00:59:53.740Z,2.22
2022-09-18T01:02:23.526Z,2.15
2022-09-18T01:04:53.885Z,2.70
2022-09-18T01:07:36.908Z,2.33
2022-09-18T01:10:18.809Z,2.33
2022-09-18T01:12:56.374Z,2.20
2022-09-18T01:15:37.839Z,2.50
2022-09-18T01:18:16.971Z,2.90
2022-09-18T01:21:06.661Z,3.30
2022-09-18T01:24:19.001Z,3.15
2022-09-18T01:26:58.664Z,3.47
2022-09-18T01:29:44.609Z,3.13
2022-09-18T01:32:22.533Z,3.50
2022-09-18T01:35:00.411Z,3.33
2022-09-18T01:37:36.647Z,4.22
2022-09-18T01:40:13.034Z,3.40
2022-09-18T01:42:46.087Z,3.33
2022-09-18T01:45:21.447Z,4.55
2022-09-18T01:47:55.743Z,3.53
2022-09-18T01:50:28.066Z,3.97
2022-09-18T01:53:04.207Z,3.63
2022-09-18T01:55:35.959Z,4.10
2022-09-18T01:58:08.756Z,4.15
2022-09-18T02:00:43.721Z,3.50
2022-09-18T02:03:17.925Z,4.13
2022-09-18T02:05:51.110Z,3.85
2022-09-18T02:08:26.635Z,4.72
2022-09-18T02:11:01.749Z,3.80
2022-09-18T02:13:36.245Z,3.72
2022-09-18T02:16:12.605Z,3.63
2022-09-18T02:18:47.593Z,3.70
2022-09-18T02:21:22.456Z,3.65
2022-09-18T02:23:53.180Z,3.97
2022-09-18T02:26:23.907Z,3.22
2022-09-18T02:28:55.046Z,4.05
2022-09-18T02:31:25.828Z,3.53
2022-09-18T02:33:55.733Z,3.80
2022-09-18T02:36:44.634Z,4.22
2022-09-18T02:39:41.044Z,3.20
2022-09-18T02:42:24.725Z,4.40
2022-09-18T02:45:00.626Z,3.10
2022-09-18T02:47:44.640Z,3.72
2022-09-18T02:50:19.912Z,3.65
2022-09-18T02:52:56.862Z,3.88
2022-09-18T02:55:31.790Z,3.35
2022-09-18T02:58:05.288Z,3.83
2022-09-18T03:00:35.841Z,3.97
2022-09-18T03:03:06.649Z,2.92
2022-09-18T03:05:36.362Z,3.35
2022-09-18T03:08:05.628Z,4.20
2022-09-18T03:10:35.085Z,3.30
2022-09-18T03:13:05.128Z,3.10
2022-09-18T03:15:34.363Z,3.80
2022-09-18T03:18:03.942Z,3.67
2022-09-18T03:20:35.393Z,3.10
2022-09-18T03:23:05.191Z,3.78
2022-09-18T03:25:35.622Z,3.38
2022-09-18T03:28:05.614Z,3.15
2022-09-18T03:30:35.054Z,4.67
2022-09-18T03:33:05.402Z,3.38
2022-09-18T03:35:36.378Z,3.60
2022-09-18T03:38:06.043Z,3.92
2022-09-18T03:40:35.617Z,4.00
2022-09-18T03:43:05.038Z,4.60
2022-09-18T03:45:35.161Z,4.13
2022-09-18T03:48:05.181Z,3.70
2022-09-18T03:50:36.169Z,4.50
2022-09-18T03:53:05.956Z,4.25
2022-09-18T03:55:35.323Z,4.05
2022-09-18T03:58:04.672Z,4.10
2022-09-18T04:00:34.733Z,3.88
2022-09-18T04:03:04.150Z,3.80
2022-09-18T04:05:35.046Z,4.20
2022-09-18T04:08:05.833Z,3.97
2022-09-18T04:10:35.326Z,4.13
2022-09-18T04:13:04.588Z,4.65
2022-09-18T04:15:35.066Z,3.88
2022-09-18T04:18:04.820Z,4.00
2022-09-18T04:20:35.695Z,4.03
2022-09-18T04:23:07.004Z,4.70
2022-09-18T04:25:37.142Z,3.80
2022-09-18T04:28:07.274Z,4.95
2022-09-18T04:30:38.712Z,4.55
2022-09-18T04:33:08.985Z,4.57
2022-09-18T04:35:40.004Z,3.97
2022-09-18T04:38:10.704Z,3.80
2022-09-18T04:40:40.542Z,4.35
2022-09-18T04:43:11.982Z,3.60
2022-09-18T04:45:41.530Z,4.00
2022-09-18T04:48:11.833Z,4.60
2022-09-18T04:50:42.694Z,3.50
2022-09-18T04:53:12.750Z,3.40
2022-09-18T04:55:44.905Z,3.33
2022-09-18T04:58:15.242Z,3.78
2022-09-18T05:00:44.722Z,3.77
2022-09-18T05:03:14.034Z,3.35
2022-09-18T05:05:45.345Z,4.00
2022-09-18T05:08:14.594Z,4.38
2022-09-18T05:10:44.736Z,4.43
2022-09-18T05:13:14.583Z,4.32
2022-09-18T05:15:43.954Z,4.20
2022-09-18T05:18:14.137Z,4.25
2022-09-18T05:20:45.536Z,3.50
2022-09-18T05:23:15.469Z,3.45
2022-09-18T05:25:45.242Z,3.55
2022-09-18T05:28:15.973Z,3.42
2022-09-18T05:30:45.825Z,4.28
2022-09-18T05:33:15.514Z,3.63
2022-09-18T05:35:46.316Z,3.63
2022-09-18T05:38:16.245Z,3.35
2022-09-18T05:40:45.705Z,4.20
2022-09-18T05:43:15.070Z,3.80
2022-09-18T05:45:45.018Z,3.00
2022-09-18T05:48:14.353Z,3.45
2022-09-18T05:50:43.824Z,3.03
2022-09-18T05:53:16.933Z,3.53
2022-09-18T05:55:46.258Z,3.22
2022-09-18T05:58:18.203Z,3.08
2022-09-18T06:00:48.928Z,3.05
2022-09-18T06:03:19.037Z,3.17
2022-09-18T06:05:55.104Z,3.00
2022-09-18T06:08:26.674Z,2.90
2022-09-18T06:10:55.961Z,2.97
2022-09-18T06:13:25.857Z,3.03
2022-09-18T06:15:56.374Z,3.22
2022-09-18T06:18:26.363Z,3.05
2022-09-18T06:20:57.495Z,3.15
2022-09-18T06:26:02.351Z,3.22
2022-09-18T06:28:32.725Z,3.80
2022-09-18T06:31:03.725Z,3.28
2022-09-18T06:33:35.759Z,2.67
2022-09-18T06:36:09.174Z,3.42
2022-09-18T06:38:39.997Z,3.10
2022-09-18T06:41:10.550Z,3.13
2022-09-18T06:43:40.411Z,3.92
2022-09-18T06:46:12.792Z,2.90
2022-09-18T06:48:42.403Z,2.35
2022-09-18T06:51:12.065Z,3.05
2022-09-18T06:53:42.794Z,2.58
2022-09-18T06:56:12.450Z,3.53
2022-09-18T06:58:42.003Z,2.67
2022-09-18T07:01:11.312Z,2.83
2022-09-18T07:03:41.038Z,2.85
2022-09-18T07:06:12.098Z,3.25
2022-09-18T07:08:43.535Z,3.22
2022-09-18T07:11:13.098Z,2.70
2022-09-18T07:13:42.857Z,2.95
2022-09-18T07:16:12.557Z,2.92
2022-09-18T07:18:42.513Z,3.03
2022-09-18T07:21:12.233Z,2.67
2022-09-18T07:23:43.294Z,2.70
2022-09-18T07:26:13.063Z,3.05
2022-09-18T07:28:42.408Z,2.72
2022-09-18T07:31:13.468Z,2.80
2022-09-18T07:33:43.167Z,2.85
2022-09-18T07:36:12.665Z,2.85
2022-09-18T07:38:43.567Z,2.13
2022-09-18T07:41:13.636Z,2.20
2022-09-18T07:43:42.878Z,2.40
2022-09-18T07:46:12.327Z,2.53
2022-09-18T07:48:42.339Z,2.60
2022-09-18T07:51:11.790Z,2.28
2022-09-18T07:53:42.936Z,2.35
2022-09-18T07:56:14.105Z,2.38
2022-09-18T07:58:43.435Z,2.80
2022-09-18T08:01:12.707Z,2.30
2022-09-18T08:03:42.574Z,2.72
2022-09-18T08:06:12.348Z,2.53
2022-09-18T08:08:43.115Z,2.20
2022-09-18T08:11:12.894Z,2.63
2022-09-18T08:13:42.344Z,2.35
2022-09-18T08:16:13.891Z,2.20
2022-09-18T08:18:43.757Z,2.50
2022-09-18T08:21:13.617Z,2.63
2022-09-18T08:23:44.612Z,1.77
2022-09-18T08:26:17.665Z,3.00
2022-09-18T08:28:51.104Z,2.30
2022-09-18T08:31:20.889Z,1.70
2022-09-18T08:33:50.155Z,2.33
2022-09-18T08:36:19.657Z,1.92
2022-09-18T08:38:53.673Z,2.17
2022-09-18T08:41:46.941Z,2.17
2022-09-18T08:44:24.621Z,1.85
2022-09-18T08:46:59.833Z,1.65
2022-09-18T08:49:32.606Z,1.70
2022-09-18T08:52:06.396Z,2.03
2022-09-18T08:54:45.273Z,1.55
2022-09-18T08:57:19.783Z,1.75
2022-09-18T08:59:53.813Z,1.77
2022-09-18T09:02:38.084Z,1.33
2022-09-18T09:05:12.900Z,1.15
2022-09-18T09:08:10.402Z,1.88
2022-09-18T09:10:49.449Z,1.00
2022-09-18T09:13:42.844Z,1.27
2022-09-18T09:16:17.829Z,1.88
2022-09-18T09:19:00.628Z,1.63
2022-09-18T09:21:46.563Z,1.65
2022-09-18T09:24:31.348Z,2.00
2022-09-18T09:27:15.134Z,1.55
2022-09-18T09:29:47.917Z,1.60
2022-09-18T09:32:23.987Z,2.17
2022-09-18T09:34:57.230Z,1.70
2022-09-18T09:37:38.440Z,1.33
2022-09-18T09:42:46.441Z,1.67
2022-09-18T09:45:22.626Z,1.58
2022-09-18T09:47:58.125Z,1.73
2022-09-18T09:50:39.842Z,1.48
2022-09-18T09:53:13.751Z,1.15
2022-09-18T09:55:53.723Z,1.38
2022-09-18T09:58:42.337Z,1.40
2022-09-18T10:01:16.249Z,1.17
2022-09-18T10:03:56.129Z,1.45
2022-09-18T10:06:43.063Z,1.20
2022-09-18T10:09:18.917Z,1.35
2022-09-18T10:11:57.239Z,1.20
2022-09-18T10:14:32.394Z,1.92
2022-09-18T10:17:04.967Z,1.42
2022-09-18T10:19:40.308Z,1.00
2022-09-18T10:22:12.751Z,1.20
2022-09-18T10:24:48.858Z,1.60
2022-09-18T10:27:19.370Z,1.80
2022-09-18T10:32:35.187Z,1.38
2022-09-18T10:35:43.500Z,1.55
2022-09-18T10:38:35.262Z,0.95
2022-09-18T10:41:30.423Z,1.00
2022-09-18T10:44:07.557Z,0.80
2022-09-18T10:46:50.958Z,0.80
2022-09-18T10:49:25.344Z,0.50
2022-09-18T10:52:21.501Z,0.70
2022-09-18T10:55:01.896Z,0.70
2022-09-18T11:00:01.701Z,0.60
2022-09-18T11:02:40.083Z,0.63
2022-09-18T11:05:19.747Z,0.70
2022-09-18T11:07:50.415Z,0.50
2022-09-18T11:10:21.399Z,0.70
2022-09-18T11:12:55.661Z,0.68
2022-09-18T11:15:27.910Z,0.70
2022-09-18T11:18:00.809Z,0.70
2022-09-18T11:20:33.033Z,0.40
2022-09-18T11:23:17.514Z,0.60
2022-09-18T11:25:48.489Z,0.60
2022-09-18T11:28:28.483Z,0.60
2022-09-18T11:33:32.779Z,0.43
2022-09-18T11:36:06.121Z,0.40
2022-09-18T11:38:41.914Z,0.50
2022-09-18T11:41:13.890Z,0.80
2022-09-18T11:43:45.481Z,0.73
2022-09-18T11:46:24.224Z,0.77
2022-09-18T11:49:04.306Z,0.30
2022-09-18T11:51:44.338Z,0.47
2022-09-18T11:54:26.798Z,0.38
2022-09-18T11:57:01.086Z,0.52
2022-09-18T11:59:34.849Z,0.50
2022-09-18T12:02:16.115Z,0.25
2022-09-18T12:04:52.389Z,0.30
2022-09-18T12:07:40.316Z,0.60
2022-09-18T12:10:17.904Z,0.50
2022-09-18T12:12:51.982Z,0.20
2022-09-18T12:15:24.421Z,0.60
2022-09-18T12:17:58.365Z,0.25
2022-09-18T12:20:33.568Z,0.30
2022-09-18T12:23:05.102Z,0.20
2022-09-18T12:25:41.977Z,0.20
2022-09-18T12:28:19.146Z,0.30
2022-09-18T12:30:52.840Z,0.22
2022-09-18T12:33:34.328Z,0.20
2022-09-18T12:36:37.138Z,0.30
2022-09-18T12:39:24.205Z,0.20
2022-09-18T12:42:06.014Z,0.13
2022-09-18T12:45:09.324Z,0.13
2022-09-18T12:47:50.663Z,0.10
2022-09-18T12:50:46.229Z,0.15
2022-09-18T12:53:36.981Z,0.20
2022-09-18T12:56:19.418Z,0.30
2022-09-18T12:59:14.559Z,0.20
2022-09-18T13:01:49.033Z,0.30
2022-09-18T13:04:24.865Z,0.20
2022-09-18T13:06:59.832Z,0.20
2022-09-18T13:09:36.117Z,0.47
2022-09-18T13:12:13.335Z,0.65
2022-09-18T13:14:46.566Z,0.32
2022-09-18T13:17:20.228Z,0.47
2022-09-18T13:19:54.701Z,0.30
2022-09-18T13:22:35.394Z,0.65
2022-09-18T13:25:15.387Z,0.90
2022-09-18T13:27:45.085Z,0.50
2022-09-18T13:30:25.932Z,0.73
2022-09-18T13:32:58.328Z,0.52
2022-09-18T13:35:31.032Z,0.52
2022-09-18T13:38:22.401Z,1.08
2022-09-18T13:41:00.917Z,0.45
2022-09-18T13:43:47.732Z,0.43
2022-09-18T13:46:37.531Z,0.40
2022-09-18T13:49:23.287Z,0.40
2022-09-18T13:51:53.028Z,0.50
2022-09-18T13:54:29.233Z,0.93
2022-09-18T13:57:30.208Z,1.10
2022-09-18T14:00:02.005Z,1.27
2022-09-18T14:02:36.935Z,0.60
2022-09-18T14:05:34.391Z,0.65
2022-09-18T14:08:15.678Z,1.08
2022-09-18T14:11:17.011Z,0.93
2022-09-18T14:13:54.543Z,0.73
2022-09-18T14:16:43.880Z,0.55
2022-09-18T14:19:32.331Z,0.70
2022-09-18T14:22:03.077Z,0.77
2022-09-18T14:24:57.545Z,0.50
2022-09-18T14:27:39.920Z,0.65
2022-09-18T14:30:23.552Z,0.60
2022-09-18T14:33:05.120Z,0.80
2022-09-18T14:38:24.290Z,0.98
2022-09-18T14:40:58.037Z,0.90
2022-09-18T14:43:28.056Z,0.93
2022-09-18T14:45:59.027Z,0.90
2022-09-18T14:48:31.427Z,1.42
2022-09-18T14:51:06.726Z,1.30
2022-09-18T14:53:45.133Z,0.90
2022-09-18T14:56:17.296Z,0.82
2022-09-18T14:58:50.763Z,0.82
2022-09-18T15:01:25.701Z,0.88
2022-09-18T15:03:58.508Z,0.90
2022-09-18T15:06:34.301Z,0.60
2022-09-18T15:09:05.197Z,1.05
2022-09-18T15:11:52.488Z,1.67
2022-09-18T15:14:31.284Z,0.52
2022-09-18T15:17:03.856Z,0.80
2022-09-18T15:19:34.980Z,0.52
2022-09-18T15:22:04.229Z,0.82
2022-09-18T15:24:33.726Z,0.82
2022-09-18T15:27:05.849Z,0.70
2022-09-18T15:29:43.557Z,0.50
2022-09-18T15:32:22.976Z,0.75
2022-09-18T15:34:54.077Z,0.65
2022-09-18T15:37:26.369Z,0.65
2022-09-18T15:40:05.847Z,0.93
2022-09-18T15:42:38.342Z,0.73
2022-09-18T15:45:19.006Z,0.80
2022-09-18T15:50:44.141Z,1.17
2022-09-18T15:53:20.214Z,1.50
2022-09-18T15:55:59.564Z,1.27
2022-09-18T15:58:47.414Z,1.20
2022-09-18T16:01:20.114Z,1.00
2022-09-18T16:04:08.917Z,0.90
2022-09-18T16:06:45.517Z,0.90
2022-09-18T16:09:42.916Z,0.80
2022-09-18T16:12:40.131Z,0.60
2022-09-18T16:15:22.029Z,0.80
2022-09-18T16:18:11.007Z,0.85
2022-09-18T16:20:43.506Z,0.95
2022-09-18T16:23:22.095Z,0.80
2022-09-18T16:26:11.841Z,1.15
2022-09-18T16:28:44.488Z,0.68
2022-09-18T16:31:16.470Z,0.75
2022-09-18T16:33:52.729Z,1.00
2022-09-18T16:36:37.039Z,0.95
2022-09-18T16:39:08.927Z,0.90
2022-09-18T16:41:39.074Z,0.95
2022-09-18T16:44:11.168Z,0.90
2022-09-18T16:46:48.233Z,0.68
2022-09-18T16:49:19.948Z,0.80
2022-09-18T16:51:51.265Z,0.90
2022-09-18T16:54:20.551Z,0.93
2022-09-18T16:56:53.252Z,0.93
2022-09-18T16:59:25.660Z,1.27
2022-09-18T17:02:05.055Z,0.73
2022-09-18T17:04:35.880Z,0.95
2022-09-18T17:07:07.873Z,0.95
2022-09-18T17:09:37.469Z,0.77
2022-09-18T17:12:07.480Z,0.95
2022-09-18T17:14:36.933Z,1.23
2022-09-18T17:17:06.516Z,1.70
2022-09-18T17:19:37.124Z,1.23
2022-09-18T17:22:10.745Z,1.63
2022-09-18T17:24:41.548Z,1.40
2022-09-18T17:27:11.036Z,1.60
2022-09-18T17:29:40.516Z,1.42
2022-09-18T17:32:10.345Z,0.95
2022-09-18T17:34:39.930Z,1.85
2022-09-18T17:37:11.074Z,1.38
2022-09-18T17:39:40.996Z,1.30
2022-09-18T17:42:11.094Z,1.42
2022-09-18T17:44:40.484Z,1.05
2022-09-18T17:47:10.381Z,1.20
2022-09-18T17:49:39.746Z,1.40
2022-09-18T17:52:10.756Z,1.30
2022-09-18T17:54:40.945Z,1.30
2022-09-18T17:57:12.883Z,1.13
2022-09-18T17:59:44.572Z,1.30
2022-09-18T18:02:15.598Z,1.40
2022-09-18T18:04:45.593Z,1.10
2022-09-18T18:07:16.569Z,1.25
2022-09-18T18:09:46.534Z,1.25
2022-09-18T18:12:15.923Z,0.80
2022-09-18T18:14:45.576Z,1.25
2022-09-18T18:17:15.659Z,1.83
2022-09-18T18:19:45.066Z,2.00
2022-09-18T18:22:16.197Z,1.88
2022-09-18T18:24:47.077Z,1.80
2022-09-18T18:27:17.350Z,1.88
2022-09-18T18:29:47.764Z,2.45
2022-09-18T18:32:18.545Z,2.28
2022-09-18T18:34:50.513Z,2.15
2022-09-18T18:37:21.334Z,2.95
2022-09-18T18:39:51.410Z,2.97
2022-09-18T18:42:20.685Z,3.10
2022-09-18T18:44:50.248Z,2.40
2022-09-18T18:47:20.502Z,3.38
2022-09-18T18:49:50.057Z,2.80
2022-09-18T18:52:20.831Z,2.80
2022-09-18T18:54:50.853Z,3.67
2022-09-18T18:57:21.896Z,3.50
2022-09-18T18:59:51.794Z,3.25
2022-09-18T19:02:21.096Z,3.45
2022-09-18T19:04:50.684Z,4.13
2022-09-18T19:07:22.058Z,3.83
2022-09-18T19:12:21.150Z,3.72
2022-09-18T19:14:51.517Z,3.40
2022-09-18T19:17:20.969Z,3.65
2022-09-18T19:19:51.454Z,4.20
2022-09-18T19:22:22.403Z,3.65
2022-09-18T19:24:52.265Z,4.25
2022-09-18T19:27:21.826Z,6.43
2022-09-18T19:29:51.244Z,5.28
2022-09-18T19:32:21.461Z,4.20
2022-09-18T19:34:50.811Z,5.25
2022-09-18T19:37:21.640Z,4.97
2022-09-18T19:39:51.305Z,4.68
2022-09-18T19:42:20.788Z,4.07
2022-09-18T19:44:52.364Z,5.20
2022-09-18T19:47:25.725Z,4.35
2022-09-18T19:49:57.173Z,4.40
2022-09-18T19:52:29.542Z,4.47
2022-09-18T19:54:59.969Z,4.13
2022-09-18T20:00:01.372Z,3.55
2022-09-18T20:02:31.317Z,4.18
2022-09-18T20:05:01.006Z,3.70
2022-09-18T20:07:31.879Z,3.92
2022-09-18T20:10:01.415Z,4.22
2022-09-18T20:12:35.320Z,3.20
2022-09-18T20:15:05.889Z,3.53
2022-09-18T20:17:35.161Z,3.22
2022-09-18T20:20:08.539Z,2.42
2022-09-18T20:22:40.285Z,2.65
2022-09-18T20:27:40.948Z,2.45
2022-09-18T20:32:41.180Z,3.80
2022-09-18T20:35:11.446Z,3.17
2022-09-18T20:37:42.210Z,1.98
2022-09-18T20:40:13.073Z,2.63
2022-09-18T20:42:42.443Z,3.00
2022-09-18T20:45:12.002Z,2.25
2022-09-18T20:47:42.032Z,2.30
2022-09-18T20:50:14.325Z,2.20
2022-09-18T20:52:45.909Z,3.33
2022-09-18T20:57:46.868Z,2.33
2022-09-18T21:00:18.184Z,3.00
2022-09-18T21:02:53.590Z,2.53
2022-09-18T21:05:22.820Z,2.20
2022-09-18T21:08:01.097Z,2.28
2022-09-18T21:10:30.800Z,2.88
2022-09-18T21:13:01.572Z,3.45
2022-09-18T21:15:32.281Z,2.60
2022-09-18T21:18:01.981Z,2.72
2022-09-18T21:20:31.704Z,2.22
2022-09-18T21:23:20.130Z,2.30
2022-09-18T21:25:49.756Z,2.53
2022-09-18T21:28:19.072Z,2.67
2022-09-18T21:30:48.456Z,2.63
2022-09-18T21:33:18.466Z,2.97
2022-09-18T21:35:55.148Z,1.98
2022-09-18T21:38:28.228Z,2.65
2022-09-18T21:41:03.772Z,1.67
2022-09-18T21:43:34.478Z,2.10
2022-09-18T21:46:04.924Z,2.03
2022-09-18T21:48:35.795Z,1.88
2022-09-18T21:51:06.251Z,3.53
2022-09-18T21:56:12.152Z,1.80
2022-09-18T21:58:42.227Z,2.08
2022-09-18T22:01:15.856Z,1.92
2022-09-18T22:03:52.612Z,2.47
2022-09-18T22:06:23.148Z,2.03
2022-09-18T22:08:56.664Z,3.72
2022-09-18T22:11:28.872Z,2.30
2022-09-18T22:14:01.344Z,2.70
2022-09-18T22:16:30.799Z,2.22
2022-09-18T22:19:01.449Z,2.72
2022-09-18T22:21:32.660Z,2.27
2022-09-18T22:24:09.034Z,2.00
2022-09-18T22:26:40.048Z,2.38
2022-09-18T22:29:14.866Z,2.13
2022-09-18T22:31:46.750Z,2.10
2022-09-18T22:34:19.178Z,2.28
2022-09-18T22:36:49.528Z,2.15
2022-09-18T22:39:22.092Z,2.15
2022-09-18T22:41:52.886Z,2.10
2022-09-18T22:44:22.980Z,2.30
2022-09-18T22:46:53.651Z,2.55
2022-09-18T22:49:24.776Z,2.20
2022-09-18T22:51:55.149Z,2.40
2022-09-18T22:54:27.665Z,2.63
2022-09-18T22:56:57.945Z,2.40
2022-09-18T22:59:28.905Z,2.87
2022-09-18T23:02:00.599Z,2.30
2022-09-18T23:04:31.985Z,2.28
2022-09-18T23:07:02.161Z,2.47
2022-09-18T23:09:33.449Z,2.20
2022-09-18T23:12:03.802Z,2.92
2022-09-18T23:14:33.317Z,2.53
2022-09-18T23:17:03.171Z,2.30
2022-09-18T23:19:34.890Z,1.90
2022-09-18T23:22:04.775Z,2.47
2022-09-18T23:24:36.233Z,2.50
2022-09-18T23:27:05.604Z,2.45
2022-09-18T23:29:35.745Z,2.20
2022-09-18T23:32:05.064Z,2.20
2022-09-18T23:34:34.969Z,2.03
2022-09-18T23:37:05.005Z,2.67
2022-09-18T23:39:36.401Z,2.63
2022-09-18T23:42:09.050Z,1.85
2022-09-18T23:44:38.325Z,1.52
2022-09-18T23:47:08.654Z,3.30
2022-09-18T23:49:37.942Z,2.15
2022-09-18T23:52:07.640Z,3.03
2022-09-18T23:54:38.998Z,2.30
2022-09-18T23:57:08.289Z,1.60
2022-09-18T23:59:38.304Z,2.75
